createdAt,value
2022-09-17T00:04:04.614Z,101418.34
2022-09-17T00:09:26.548Z,101419.66
2022-09-17T00:14:48.178Z,101424.13
2022-09-17T00:20:10.975Z,101425.22
2022-09-17T00:25:32.799Z,101427.16
2022-09-17T00:30:54.544Z,101422.69
2022-09-17T00:36:17.510Z,101416.28
2022-09-17T00:41:39.814Z,101414.59
2022-09-17T00:47:01.626Z,101420.13
2022-09-17T00:52:31.149Z,101419.06
2022-09-17T00:57:56.652Z,101426.56
2022-09-17T01:03:18.486Z,101428.47
2022-09-17T01:09:01.447Z,101425.69
2022-09-17T01:14:50.384Z,101431.25
2022-09-17T01:20:37.151Z,101440.69
2022-09-17T01:26:27.005Z,101452.88
2022-09-17T01:31:51.745Z,101456.13
2022-09-17T01:37:30.511Z,101455.03
2022-09-17T01:43:04.164Z,101462.50
2022-09-17T01:48:47.721Z,101460.00
2022-09-17T01:54:31.243Z,101463.59
2022-09-17T01:59:59.755Z,101457.47
2022-09-17T02:05:42.315Z,101457.47
2022-09-17T02:11:10.550Z,101468.56
2022-09-17T02:16:35.918Z,101465.78
2022-09-17T02:22:08.514Z,101460.47
2022-09-17T02:27:35.912Z,101461.31
2022-09-17T02:32:57.814Z,101463.25
2022-09-17T02:38:26.630Z,101473.25
2022-09-17T02:43:52.121Z,101466.00
2022-09-17T02:49:28.676Z,101464.81
2022-09-17T02:55:10.734Z,101467.97
2022-09-17T03:00:33.214Z,101464.81
2022-09-17T03:05:55.827Z,101463.97
2022-09-17T03:11:17.499Z,101457.59
2022-09-17T03:16:39.384Z,101456.50
2022-09-17T03:22:01.354Z,101455.88
2022-09-17T03:27:23.090Z,101450.34
2022-09-17T03:32:44.957Z,101447.56
2022-09-17T03:38:06.597Z,101449.47
2022-09-17T03:43:31.220Z,101445.00
2022-09-17T03:48:52.903Z,101447.78
2022-09-17T03:54:14.543Z,101453.59
2022-09-17T03:59:36.177Z,101456.38
2022-09-17T04:04:57.801Z,101467.47
2022-09-17T04:10:19.540Z,101458.53
2022-09-17T04:15:41.857Z,101461.31
2022-09-17T04:21:03.875Z,101466.84
2022-09-17T04:26:25.830Z,101472.41
2022-09-17T04:31:47.493Z,101463.25
2022-09-17T04:37:09.314Z,101467.72
2022-09-17T04:42:31.019Z,101467.94
2022-09-17T04:47:52.695Z,101469.88
2022-09-17T04:53:14.501Z,101460.94
2022-09-17T04:58:36.183Z,101472.88
2022-09-17T05:03:57.906Z,101473.97
2022-09-17T05:09:20.011Z,101474.81
2022-09-17T05:14:41.719Z,101476.75
2022-09-17T05:20:03.622Z,101486.19
2022-09-17T05:25:25.478Z,101486.19
2022-09-17T05:30:47.203Z,101494.50
2022-09-17T05:36:08.946Z,101493.63
2022-09-17T05:41:30.702Z,101503.91
2022-09-17T05:46:53.629Z,101506.69
2022-09-17T05:52:16.420Z,101510.53
2022-09-17T05:57:38.101Z,101518.88
2022-09-17T06:02:59.816Z,101519.69
2022-09-17T06:08:22.581Z,101530.81
2022-09-17T06:13:44.301Z,101529.97
2022-09-17T06:19:05.954Z,101529.97
2022-09-17T06:24:28.146Z,101529.09
2022-09-17T06:29:49.776Z,101542.75
2022-09-17T06:35:11.431Z,101536.72
2022-09-17T06:40:33.281Z,101531.56
2022-09-17T06:45:57.464Z,101529.88
2022-09-17T06:51:19.201Z,101529.53
2022-09-17T06:56:40.816Z,101527.47
2022-09-17T07:02:02.558Z,101534.84
2022-09-17T07:07:24.312Z,101543.31
2022-09-17T07:12:49.797Z,101551.03
2022-09-17T07:18:12.126Z,101559.59
2022-09-17T07:23:35.811Z,101570.47
2022-09-17T07:28:57.489Z,101561.69
2022-09-17T07:34:19.226Z,101563.00
2022-09-17T07:39:41.451Z,101560.00
2022-09-17T07:45:03.117Z,101561.81
2022-09-17T07:50:24.770Z,101561.94
2022-09-17T07:55:57.646Z,101560.13
2022-09-17T08:01:21.372Z,101567.22
2022-09-17T08:06:43.205Z,101560.72
2022-09-17T08:12:05.569Z,101556.91
2022-09-17T08:17:27.221Z,101568.63
2022-09-17T08:22:50.258Z,101559.63
2022-09-17T08:28:12.086Z,101567.16
2022-09-17T08:33:35.674Z,101563.91
2022-09-17T08:38:58.758Z,101569.13
2022-09-17T08:44:27.737Z,101568.53
2022-09-17T08:49:54.177Z,101569.63
2022-09-17T08:55:25.996Z,101572.28
2022-09-17T09:00:56.033Z,101571.91
2022-09-17T09:06:19.845Z,101578.44
2022-09-17T09:11:43.685Z,101588.00
2022-09-17T09:17:10.103Z,101590.19
2022-09-17T09:22:45.546Z,101590.69
2022-09-17T09:28:25.261Z,101585.84
2022-09-17T09:33:48.170Z,101589.38
2022-09-17T09:39:40.328Z,101590.44
2022-09-17T09:45:17.257Z,101592.00
2022-09-17T09:51:04.676Z,101592.97
2022-09-17T09:56:44.131Z,101592.38
2022-09-17T10:02:05.958Z,101596.72
2022-09-17T10:07:28.447Z,101600.22
2022-09-17T10:13:05.844Z,101595.50
2022-09-17T10:18:27.497Z,101601.94
2022-09-17T10:23:50.946Z,101598.28
2022-09-17T10:29:16.876Z,101600.22
2022-09-17T10:34:38.711Z,101596.00
2022-09-17T10:40:00.473Z,101598.19
2022-09-17T10:45:31.213Z,101598.66
2022-09-17T10:50:55.902Z,101600.00
2022-09-17T10:56:26.641Z,101601.91
2022-09-17T11:01:58.403Z,101604.47
2022-09-17T11:07:49.580Z,101605.28
2022-09-17T11:13:16.926Z,101600.81
2022-09-17T11:19:07.855Z,101588.00
2022-09-17T11:24:46.829Z,101598.75
2022-09-17T11:30:24.579Z,101603.97
2022-09-17T11:35:53.049Z,101622.16
2022-09-17T11:41:26.102Z,101626.72
2022-09-17T11:47:12.871Z,101591.97
2022-09-17T11:52:42.889Z,101586.88
2022-09-17T11:58:15.331Z,101586.88
2022-09-17T12:03:43.892Z,101577.47
2022-09-17T12:09:20.011Z,101566.97
2022-09-17T12:14:44.313Z,101565.75
2022-09-17T12:20:22.719Z,101569.75
2022-09-17T12:25:55.917Z,101563.94
2022-09-17T12:32:03.775Z,101563.09
2022-09-17T12:37:45.642Z,101548.34
2022-09-17T12:43:28.936Z,101546.44
2022-09-17T12:48:59.493Z,101542.81
2022-09-17T12:54:32.261Z,101541.09
2022-09-17T13:00:07.444Z,101539.19
2022-09-17T13:05:55.242Z,101553.31
2022-09-17T13:11:31.879Z,101595.44
2022-09-17T13:17:22.691Z,101567.28
2022-09-17T13:22:50.310Z,101565.03
2022-09-17T13:28:12.204Z,101565.03
2022-09-17T13:33:52.186Z,101559.81
2022-09-17T13:39:35.873Z,101549.81
2022-09-17T13:45:08.909Z,101548.34
2022-09-17T13:50:37.250Z,101556.69
2022-09-17T13:56:02.071Z,101555.59
2022-09-17T14:01:57.614Z,101591.09
2022-09-17T14:07:22.014Z,101593.72
2022-09-17T14:13:01.013Z,101571.13
2022-09-17T14:18:43.541Z,101571.38
2022-09-17T14:24:21.967Z,101576.69
2022-09-17T14:29:54.547Z,101575.88
2022-09-17T14:35:20.193Z,101574.75
2022-09-17T14:40:47.421Z,101577.91
2022-09-17T14:46:22.766Z,101572.97
2022-09-17T14:51:44.491Z,101576.84
2022-09-17T14:57:08.913Z,101577.66
2022-09-17T15:02:46.425Z,101585.16
2022-09-17T15:08:16.170Z,101587.09
2022-09-17T15:13:45.690Z,101582.00
2022-09-17T15:19:14.350Z,101574.75
2022-09-17T15:24:59.152Z,101571.13
2022-09-17T15:30:23.384Z,101572.47
2022-09-17T15:36:09.430Z,101573.09
2022-09-17T15:41:36.249Z,101566.06
2022-09-17T15:47:38.005Z,101572.47
2022-09-17T15:53:08.790Z,101575.00
2022-09-17T15:58:33.395Z,101584.66
2022-09-17T16:04:23.964Z,101585.28
2022-09-17T16:09:51.047Z,101581.88
2022-09-17T16:15:13.580Z,101592.13
2022-09-17T16:20:35.221Z,101592.13
2022-09-17T16:25:58.073Z,101595.16
2022-09-17T16:31:20.659Z,101591.53
2022-09-17T16:36:42.474Z,101610.97
2022-09-17T16:42:04.390Z,101610.97
2022-09-17T16:47:26.013Z,101603.94
2022-09-17T16:52:47.739Z,101599.25
2022-09-17T16:58:09.533Z,101603.31
2022-09-17T17:03:31.173Z,101615.50
2022-09-17T17:08:53.073Z,101622.16
2022-09-17T17:14:15.107Z,101622.16
2022-09-17T17:19:36.958Z,101626.03
2022-09-17T17:24:58.714Z,101625.16
2022-09-17T17:30:20.424Z,101632.66
2022-09-17T17:35:42.129Z,101634.56
2022-09-17T17:41:09.586Z,101629.00
2022-09-17T17:46:31.340Z,101639.28
2022-09-17T17:51:53.632Z,101643.97
2022-09-17T17:57:15.309Z,101643.97
2022-09-17T18:02:37.147Z,101658.09
2022-09-17T18:07:58.877Z,101644.22
2022-09-17T18:13:21.228Z,101653.63
2022-09-17T18:18:45.356Z,101663.03
2022-09-17T18:24:07.208Z,101675.19
2022-09-17T18:29:29.236Z,101677.34
2022-09-17T18:34:51.740Z,101685.94
2022-09-17T18:40:13.895Z,101692.31
2022-09-17T18:45:36.081Z,101720.94
2022-09-17T18:50:59.678Z,101707.88
2022-09-17T18:56:32.773Z,101708.13
2022-09-17T19:01:54.464Z,101712.84
2022-09-17T19:07:16.241Z,101705.34
2022-09-17T19:12:38.206Z,101695.34
2022-09-17T19:17:59.953Z,101701.75
2022-09-17T19:23:21.750Z,101711.16
2022-09-17T19:28:43.620Z,101713.69
2022-09-17T19:34:05.270Z,101710.06
2022-09-17T19:39:26.935Z,101700.06
2022-09-17T19:44:48.764Z,101711.16
2022-09-17T19:50:10.437Z,101715.84
2022-09-17T19:55:32.125Z,101720.56
2022-09-17T20:00:58.499Z,101716.69
2022-09-17T20:06:24.196Z,101712.22
2022-09-17T20:11:46.012Z,101712.44
2022-09-17T20:17:07.682Z,101718.84
2022-09-17T20:22:29.344Z,101706.06
2022-09-17T20:27:51.110Z,101712.44
2022-09-17T20:33:13.222Z,101706.06
2022-09-17T20:44:18.016Z,101704.34
2022-09-17T20:49:39.668Z,101704.34
2022-09-17T20:55:01.348Z,101702.66
2022-09-17T21:00:26.525Z,101696.28
2022-09-17T21:05:48.652Z,101700.97
2022-09-17T21:11:10.452Z,101700.97
2022-09-17T21:16:32.249Z,101697.34
2022-09-17T21:21:54.762Z,101707.59
2022-09-17T21:27:16.445Z,101710.38
2022-09-17T21:32:38.404Z,101708.66
2022-09-17T21:38:00.196Z,101703.13
2022-09-17T21:43:21.995Z,101712.53
2022-09-17T21:48:51.784Z,101701.44
2022-09-17T21:54:16.983Z,101704.19
2022-09-17T21:59:38.793Z,101710.81
2022-09-17T22:05:00.425Z,101713.59
2022-09-17T22:10:22.061Z,101703.59
2022-09-17T22:15:43.758Z,101709.16
2022-09-17T22:21:16.723Z,101705.28
2022-09-17T22:26:43.495Z,101707.47
2022-09-17T22:32:05.317Z,101712.16
2022-09-17T22:37:28.903Z,101700.22
2022-09-17T22:42:50.557Z,101700.22
2022-09-17T22:48:12.217Z,101706.84
2022-09-17T22:53:34.797Z,101700.22
2022-09-17T22:58:57.543Z,101698.53
2022-09-17T23:04:19.199Z,101698.53
2022-09-17T23:09:40.817Z,101690.19
2022-09-17T23:15:02.552Z,101696.81
2022-09-17T23:20:24.195Z,101680.19
2022-09-17T23:25:45.805Z,101693.19
2022-09-17T23:31:22.309Z,101689.31
2022-09-17T23:36:44.164Z,101681.25
2022-09-17T23:42:05.920Z,101672.31
2022-09-17T23:47:27.741Z,101675.09
2022-09-17T23:52:49.394Z,101677.84
2022-09-17T23:58:11.058Z,101690.03
